Terminal Aerodrome Forecast
Issued by NWS Charleston, WV

Current Version | Previous Version | Text Only | Print | Product List | Glossary Off
Versions: 1 2 3 4 5 6 7 8 9 10 11 12 13 14 15 16 17 18 19 20 21 22 23 24 25 26

000
FTUS41 KRLX 151306 AAA
TAFCRW
TAF AMD
KCRW 151306Z 1513/1612 VRB02KT 2SM BR OVC001
     FM151400 VRB02KT 4SM BR OVC002
     FM151500 VRB02KT 6SM BR OVC004
     FM151600 VRB02KT 6SM BR OVC008
     FM151700 VRB02KT P6SM OVC010
     FM160400 VRB02KT 5SM -RA BR OVC015=

USA.gov is the U.S. government's official web portal to all federal, state and local government web resources and services.